sensor_id;sensor_type;location;lat;lon;timestamp;pressure;altitude;pressure_sealevel;temperature;humidity
6038;BME280;3047;42.600;23.470;2023-03-24T02:56:10;93075.19;;;6.31;100.00
6038;BME280;3047;42.600;23.470;2023-03-24T02:58:40;93070.09;;;6.37;100.00
6038;BME280;3047;42.600;23.470;2023-03-24T03:01:11;93053.22;;;6.50;100.00
6038;BME280;3047;42.600;23.470;2023-03-24T03:03:41;93067.34;;;6.55;100.00
6038;BME280;3047;42.600;23.470;2023-03-24T03:06:14;93043.19;;;6.48;100.00
6038;BME280;3047;42.600;23.470;2023-03-24T03:08:44;93006.94;;;6.09;100.00
6038;BME280;3047;42.600;23.470;2023-03-24T03:11:17;93046.72;;;6.36;100.00
6038;BME280;3047;42.600;23.470;2023-03-24T03:13:49;93069.06;;;6.53;100.00
6038;BME280;3047;42.600;23.470;2023-03-24T03:16:22;93066.44;;;6.59;100.00
6038;BME280;3047;42.600;23.470;2023-03-24T03:18:53;93064.75;;;6.61;100.00
6038;BME280;3047;42.600;23.470;2023-03-24T03:21:22;93070.50;;;6.69;100.00
6038;BME280;3047;42.600;23.470;2023-03-24T03:23:54;93069.69;;;6.67;100.00
6038;BME280;3047;42.600;23.470;2023-03-24T03:26:24;93068.69;;;6.79;100.00
6038;BME280;3047;42.600;23.470;2023-03-24T03:28:56;93069.47;;;6.83;100.00
6038;BME280;3047;42.600;23.470;2023-03-24T03:31:26;93066.16;;;6.79;100.00
6038;BME280;3047;42.600;23.470;2023-03-24T03:33:59;93065.38;;;6.76;100.00
6038;BME280;3047;42.600;23.470;2023-03-24T03:36:32;93062.34;;;6.54;100.00
6038;BME280;3047;42.600;23.470;2023-03-24T03:39:07;93056.44;;;6.58;100.00
6038;BME280;3047;42.600;23.470;2023-03-24T03:41:37;93050.38;;;6.73;100.00
6038;BME280;3047;42.600;23.470;2023-03-24T03:44:05;93053.63;;;6.79;100.00
6038;BME280;3047;42.600;23.470;2023-03-24T03:46:33;93062.03;;;6.75;100.00
6038;BME280;3047;42.600;23.470;2023-03-24T03:49:01;93055.56;;;6.62;100.00
6038;BME280;3047;42.600;23.470;2023-03-24T03:51:28;93061.31;;;6.67;100.00
6038;BME280;3047;42.600;23.470;2023-03-24T03:53:58;93057.22;;;6.60;100.00
6038;BME280;3047;42.600;23.470;2023-03-24T03:56:28;93056.78;;;6.33;100.00
6038;BME280;3047;42.600;23.470;2023-03-24T03:58:57;93060.06;;;6.37;100.00
6038;BME280;3047;42.600;23.470;2023-03-24T04:01:25;93056.78;;;6.32;100.00
6038;BME280;3047;42.600;23.470;2023-03-24T04:04:08;93063.44;;;6.34;100.00
6038;BME280;3047;42.600;23.470;2023-03-24T04:06:39;93077.59;;;6.38;100.00
6038;BME280;3047;42.600;23.470;2023-03-24T04:09:19;93069.03;;;6.56;100.00
6038;BME280;3047;42.600;23.470;2023-03-24T04:12:26;93074.72;;;6.66;100.00
6038;BME280;3047;42.600;23.470;2023-03-24T04:15:17;93090.59;;;6.68;100.00
6038;BME280;3047;42.600;23.470;2023-03-24T04:17:57;93100.94;;;6.45;100.00
6038;BME280;3047;42.600;23.470;2023-03-24T04:20:32;93081.09;;;6.27;100.00
6038;BME280;3047;42.600;23.470;2023-03-24T04:23:06;93074.34;;;6.32;100.00
6038;BME280;3047;42.600;23.470;2023-03-24T04:25:45;93094.03;;;6.62;100.00
6038;BME280;3047;42.600;23.470;2023-03-24T04:28:19;93096.41;;;6.72;100.00
6038;BME280;3047;42.600;23.470;2023-03-24T04:30:53;93094.91;;;6.58;100.00
6038;BME280;3047;42.600;23.470;2023-03-24T04:33:30;93070.59;;;6.62;100.00
6038;BME280;3047;42.600;23.470;2023-03-24T04:36:02;93083.75;;;6.81;100.00
6038;BME280;3047;42.600;23.470;2023-03-24T04:38:31;93086.22;;;6.82;100.00
6038;BME280;3047;42.600;23.470;2023-03-24T04:41:03;93094.69;;;6.75;100.00
6038;BME280;3047;42.600;23.470;2023-03-24T04:43:32;93092.19;;;6.72;100.00
6038;BME280;3047;42.600;23.470;2023-03-24T04:46:03;93088.94;;;6.67;100.00
6038;BME280;3047;42.600;23.470;2023-03-24T04:48:31;93098.25;;;6.59;100.00
6038;BME280;3047;42.600;23.470;2023-03-24T04:50:59;93103.16;;;6.66;100.00
6038;BME280;3047;42.600;23.470;2023-03-24T04:53:28;93097.84;;;6.89;100.00
6038;BME280;3047;42.600;23.470;2023-03-24T04:56:17;93075.59;;;6.63;100.00
6038;BME280;3047;42.600;23.470;2023-03-24T04:58:51;93102.78;;;6.94;100.00
6038;BME280;3047;42.600;23.470;2023-03-24T05:01:19;93110.09;;;7.08;100.00
6038;BME280;3047;42.600;23.470;2023-03-24T05:03:46;93110.06;;;7.11;100.00
6038;BME280;3047;42.600;23.470;2023-03-24T05:06:14;93109.81;;;7.29;100.00
6038;BME280;3047;42.600;23.470;2023-03-24T05:08:41;93113.06;;;7.33;100.00
6038;BME280;3047;42.600;23.470;2023-03-24T05:11:07;93103.84;;;7.35;100.00
6038;BME280;3047;42.600;23.470;2023-03-24T05:13:34;93091.31;;;7.32;100.00
6038;BME280;3047;42.600;23.470;2023-03-24T05:16:02;93117.53;;;7.68;100.00
6038;BME280;3047;42.600;23.470;2023-03-24T05:18:31;93120.69;;;7.78;100.00
6038;BME280;3047;42.600;23.470;2023-03-24T05:20:57;93127.97;;;7.93;100.00
6038;BME280;3047;42.600;23.470;2023-03-24T05:23:25;93119.59;;;7.92;100.00
6038;BME280;3047;42.600;23.470;2023-03-24T05:25:51;93126.16;;;8.01;100.00
6038;BME280;3047;42.600;23.470;2023-03-24T05:28:18;93124.88;;;8.25;100.00
6038;BME280;3047;42.600;23.470;2023-03-24T05:30:45;93127.19;;;8.37;100.00
6038;BME280;3047;42.600;23.470;2023-03-24T05:33:12;93105.47;;;8.30;100.00
6038;BME280;3047;42.600;23.470;2023-03-24T05:35:40;93072.06;;;8.24;100.00
6038;BME280;3047;42.600;23.470;2023-03-24T05:38:07;93137.47;;;8.69;100.00
6038;BME280;3047;42.600;23.470;2023-03-24T05:40:35;93132.50;;;8.65;100.00
6038;BME280;3047;42.600;23.470;2023-03-24T05:43:01;93143.28;;;8.71;100.00
6038;BME280;3047;42.600;23.470;2023-03-24T05:45:28;93135.81;;;8.68;100.00
6038;BME280;3047;42.600;23.470;2023-03-24T05:47:55;93128.38;;;8.61;100.00
6038;BME280;3047;42.600;23.470;2023-03-24T05:50:22;93130.03;;;8.64;100.00
6038;BME280;3047;42.600;23.470;2023-03-24T05:52:50;93129.16;;;8.65;100.00
6038;BME280;3047;42.600;23.470;2023-03-24T05:55:17;93096.00;;;8.45;100.00
6038;BME280;3047;42.600;23.470;2023-03-24T05:57:44;93135.84;;;8.66;100.00
6038;BME280;3047;42.600;23.470;2023-03-24T06:00:12;93140.59;;;8.80;100.00
6038;BME280;3047;42.600;23.470;2023-03-24T06:02:41;93110.06;;;8.94;100.00
6038;BME280;3047;42.600;23.470;2023-03-24T06:05:09;93048.38;;;8.74;100.00
6038;BME280;3047;42.600;23.470;2023-03-24T06:07:36;93124.03;;;9.46;100.00
6038;BME280;3047;42.600;23.470;2023-03-24T06:10:05;93128.41;;;9.72;100.00
6038;BME280;3047;42.600;23.470;2023-03-24T06:12:32;93132.31;;;9.85;100.00
6038;BME280;3047;42.600;23.470;2023-03-24T06:14:59;93137.63;;;10.07;100.00
6038;BME280;3047;42.600;23.470;2023-03-24T06:17:27;93146.84;;;10.08;100.00
6038;BME280;3047;42.600;23.470;2023-03-24T06:19:54;93145.59;;;10.24;100.00
6038;BME280;3047;42.600;23.470;2023-03-24T06:22:29;93155.19;;;10.44;100.00
6038;BME280;3047;42.600;23.470;2023-03-24T06:24:56;93154.03;;;10.56;100.00
6038;BME280;3047;42.600;23.470;2023-03-24T06:27:25;93147.66;;;10.74;100.00
6038;BME280;3047;42.600;23.470;2023-03-24T06:29:54;93136.84;;;10.69;100.00
6038;BME280;3047;42.600;23.470;2023-03-24T06:32:21;93145.00;;;10.78;100.00
6038;BME280;3047;42.600;23.470;2023-03-24T06:34:48;93147.22;;;10.89;99.72
6038;BME280;3047;42.600;23.470;2023-03-24T06:37:15;93122.63;;;10.66;100.00
6038;BME280;3047;42.600;23.470;2023-03-24T06:39:41;93153.06;;;10.91;100.00
6038;BME280;3047;42.600;23.470;2023-03-24T06:42:08;93128.06;;;11.10;100.00
6038;BME280;3047;42.600;23.470;2023-03-24T06:44:36;93160.66;;;11.47;99.23
6038;BME280;3047;42.600;23.470;2023-03-24T06:47:03;93169.44;;;11.63;97.27
6038;BME280;3047;42.600;23.470;2023-03-24T06:49:30;93152.56;;;11.64;97.44
6038;BME280;3047;42.600;23.470;2023-03-24T06:51:59;93171.16;;;11.63;97.01
6038;BME280;3047;42.600;23.470;2023-03-24T06:54:26;93164.56;;;11.57;98.05
6038;BME280;3047;42.600;23.470;2023-03-24T06:56:52;93166.34;;;11.54;98.82
6038;BME280;3047;42.600;23.470;2023-03-24T06:59:19;93169.97;;;11.47;98.63
6038;BME280;3047;42.600;23.470;2023-03-24T07:01:49;93169.84;;;11.50;99.00
6038;BME280;3047;42.600;23.470;2023-03-24T07:04:16;93148.09;;;11.44;99.06
6038;BME280;3047;42.600;23.470;2023-03-24T07:06:43;93131.13;;;11.48;99.97
6038;BME280;3047;42.600;23.470;2023-03-24T07:09:10;93177.63;;;11.72;99.54
6038;BME280;3047;42.600;23.470;2023-03-24T07:11:37;93174.66;;;11.85;98.90
6038;BME280;3047;42.600;23.470;2023-03-24T07:14:06;93178.56;;;11.96;98.10
6038;BME280;3047;42.600;23.470;2023-03-24T07:16:33;93174.03;;;12.05;96.95
6038;BME280;3047;42.600;23.470;2023-03-24T07:19:01;93172.31;;;12.06;97.43
6038;BME280;3047;42.600;23.470;2023-03-24T07:21:28;93181.84;;;12.24;96.92
6038;BME280;3047;42.600;23.470;2023-03-24T07:23:54;93178.09;;;12.36;97.49
6038;BME280;3047;42.600;23.470;2023-03-24T07:26:21;93161.22;;;12.60;96.66
6038;BME280;3047;42.600;23.470;2023-03-24T07:28:48;93177.78;;;12.92;93.56
6038;BME280;3047;42.600;23.470;2023-03-24T07:31:15;93162.31;;;13.00;94.31
6038;BME280;3047;42.600;23.470;2023-03-24T07:33:41;93173.91;;;13.30;91.59
6038;BME280;3047;42.600;23.470;2023-03-24T07:36:10;93177.69;;;13.64;89.77
6038;BME280;3047;42.600;23.470;2023-03-24T07:38:36;93134.47;;;13.44;89.36
6038;BME280;3047;42.600;23.470;2023-03-24T07:41:03;93160.56;;;13.69;88.25
6038;BME280;3047;42.600;23.470;2023-03-24T07:43:30;93186.56;;;13.96;88.11
6038;BME280;3047;42.600;23.470;2023-03-24T07:45:57;93187.09;;;14.04;87.73
6038;BME280;3047;42.600;23.470;2023-03-24T07:48:23;93168.59;;;14.01;86.93
6038;BME280;3047;42.600;23.470;2023-03-24T07:50:51;93180.91;;;14.32;86.62
6038;BME280;3047;42.600;23.470;2023-03-24T07:53:19;93166.97;;;14.41;86.18
6038;BME280;3047;42.600;23.470;2023-03-24T07:55:46;93180.94;;;14.52;85.24
6038;BME280;3047;42.600;23.470;2023-03-24T07:58:13;93174.41;;;14.45;85.99
6038;BME280;3047;42.600;23.470;2023-03-24T08:00:40;93167.28;;;14.55;84.95
6038;BME280;3047;42.600;23.470;2023-03-24T08:03:09;93176.34;;;14.61;83.55
6038;BME280;3047;42.600;23.470;2023-03-24T08:05:38;93165.47;;;14.57;84.15
6038;BME280;3047;42.600;23.470;2023-03-24T08:08:05;93149.66;;;14.71;85.15
6038;BME280;3047;42.600;23.470;2023-03-24T08:10:33;93165.69;;;14.92;79.56
6038;BME280;3047;42.600;23.470;2023-03-24T08:13:00;93172.03;;;15.21;79.65
6038;BME280;3047;42.600;23.470;2023-03-24T08:15:28;93168.22;;;15.29;79.88
6038;BME280;3047;42.600;23.470;2023-03-24T08:17:55;93168.72;;;15.19;81.33
6038;BME280;3047;42.600;23.470;2023-03-24T08:20:22;93173.69;;;15.03;81.27
6038;BME280;3047;42.600;23.470;2023-03-24T08:22:51;93138.84;;;14.66;80.95
6038;BME280;3047;42.600;23.470;2023-03-24T08:25:21;93166.59;;;14.70;80.33
6038;BME280;3047;42.600;23.470;2023-03-24T08:27:50;93151.13;;;14.56;81.26
6038;BME280;3047;42.600;23.470;2023-03-24T08:30:18;93157.59;;;14.43;80.45
6038;BME280;3047;42.600;23.470;2023-03-24T08:32:46;93140.47;;;14.26;83.50
6038;BME280;3047;42.600;23.470;2023-03-24T08:35:18;93148.56;;;14.15;83.93
6038;BME280;3047;42.600;23.470;2023-03-24T08:37:45;93111.09;;;13.79;84.29
6038;BME280;3047;42.600;23.470;2023-03-24T08:40:14;93147.66;;;13.96;86.65
6038;BME280;3047;42.600;23.470;2023-03-24T08:42:45;93147.53;;;13.99;82.31
6038;BME280;3047;42.600;23.470;2023-03-24T08:45:14;93148.59;;;13.93;86.57
6038;BME280;3047;42.600;23.470;2023-03-24T08:47:45;93135.22;;;13.90;87.86
6038;BME280;3047;42.600;23.470;2023-03-24T08:50:12;93143.84;;;13.85;85.86
6038;BME280;3047;42.600;23.470;2023-03-24T08:52:38;93135.75;;;13.98;85.69
6038;BME280;3047;42.600;23.470;2023-03-24T08:55:07;93130.91;;;14.12;84.92
6038;BME280;3047;42.600;23.470;2023-03-24T08:57:34;93125.94;;;14.29;84.67
6038;BME280;3047;42.600;23.470;2023-03-24T09:00:01;93107.91;;;14.35;81.02
6038;BME280;3047;42.600;23.470;2023-03-24T09:02:35;93119.50;;;14.62;83.80
6038;BME280;3047;42.600;23.470;2023-03-24T09:05:02;93087.38;;;14.61;81.96
6038;BME280;3047;42.600;23.470;2023-03-24T09:07:29;93122.84;;;15.01;79.24
6038;BME280;3047;42.600;23.470;2023-03-24T09:09:56;93111.91;;;15.18;77.66
6038;BME280;3047;42.600;23.470;2023-03-24T09:12:22;93120.34;;;15.38;78.83
6038;BME280;3047;42.600;23.470;2023-03-24T09:14:50;93106.63;;;15.59;79.46
6038;BME280;3047;42.600;23.470;2023-03-24T09:17:16;93117.56;;;15.80;77.63
6038;BME280;3047;42.600;23.470;2023-03-24T09:19:44;93105.69;;;15.79;78.55
6038;BME280;3047;42.600;23.470;2023-03-24T09:22:15;93097.38;;;15.75;78.66
6038;BME280;3047;42.600;23.470;2023-03-24T09:24:42;93101.41;;;15.79;78.33
6038;BME280;3047;42.600;23.470;2023-03-24T09:27:09;93100.16;;;16.05;77.54
6038;BME280;3047;42.600;23.470;2023-03-24T09:29:36;93102.69;;;16.23;75.07
6038;BME280;3047;42.600;23.470;2023-03-24T09:32:03;93068.41;;;16.13;75.38
6038;BME280;3047;42.600;23.470;2023-03-24T09:34:30;93096.38;;;16.47;72.38
6038;BME280;3047;42.600;23.470;2023-03-24T09:36:59;93095.75;;;16.60;71.60
6038;BME280;3047;42.600;23.470;2023-03-24T09:39:26;93087.00;;;16.81;74.71
6038;BME280;3047;42.600;23.470;2023-03-24T09:41:54;93056.13;;;16.70;72.96
6038;BME280;3047;42.600;23.470;2023-03-24T09:44:24;93084.97;;;17.03;69.67
6038;BME280;3047;42.600;23.470;2023-03-24T09:46:55;93079.63;;;17.24;72.55
6038;BME280;3047;42.600;23.470;2023-03-24T09:49:27;93085.91;;;17.18;73.23
6038;BME280;3047;42.600;23.470;2023-03-24T09:51:57;93074.59;;;17.22;71.88
6038;BME280;3047;42.600;23.470;2023-03-24T09:54:32;93068.84;;;17.35;72.95
6038;BME280;3047;42.600;23.470;2023-03-24T09:57:07;93063.47;;;17.23;71.82
6038;BME280;3047;42.600;23.470;2023-03-24T09:59:40;93073.28;;;17.47;70.71
6038;BME280;3047;42.600;23.470;2023-03-24T10:02:10;93050.88;;;17.36;68.68
6038;BME280;3047;42.600;23.470;2023-03-24T10:04:38;93051.28;;;17.44;70.02
6038;BME280;3047;42.600;23.470;2023-03-24T10:07:08;93050.53;;;17.42;69.68
6038;BME280;3047;42.600;23.470;2023-03-24T10:09:40;93054.63;;;17.61;70.82
6038;BME280;3047;42.600;23.470;2023-03-24T10:12:21;93053.91;;;17.73;69.56
6038;BME280;3047;42.600;23.470;2023-03-24T10:15:05;93037.47;;;17.78;64.17
6038;BME280;3047;42.600;23.470;2023-03-24T10:17:41;93056.03;;;17.96;64.66
6038;BME280;3047;42.600;23.470;2023-03-24T10:20:23;92997.69;;;17.74;65.56
6038;BME280;3047;42.600;23.470;2023-03-24T10:22:58;93047.38;;;18.13;66.51
6038;BME280;3047;42.600;23.470;2023-03-24T10:25:37;93045.19;;;18.21;64.85
6038;BME280;3047;42.600;23.470;2023-03-24T10:28:14;93042.66;;;18.21;62.39
6038;BME280;3047;42.600;23.470;2023-03-24T10:30:43;93031.81;;;18.32;62.62
6038;BME280;3047;42.600;23.470;2023-03-24T10:33:10;93034.72;;;18.40;61.41
6038;BME280;3047;42.600;23.470;2023-03-24T10:35:40;93035.25;;;18.45;62.97
6038;BME280;3047;42.600;23.470;2023-03-24T10:38:15;93029.69;;;18.53;63.08
6038;BME280;3047;42.600;23.470;2023-03-24T10:40:44;93019.81;;;18.47;62.57
6038;BME280;3047;42.600;23.470;2023-03-24T10:43:12;92998.28;;;18.37;64.65
6038;BME280;3047;42.600;23.470;2023-03-24T10:45:42;92974.16;;;18.26;62.45
6038;BME280;3047;42.600;23.470;2023-03-24T10:48:12;93025.28;;;18.55;59.14
6038;BME280;3047;42.600;23.470;2023-03-24T10:50:41;93027.69;;;18.44;58.73
6038;BME280;3047;42.600;23.470;2023-03-24T10:53:16;93015.72;;;18.44;58.39
6038;BME280;3047;42.600;23.470;2023-03-24T10:55:44;92992.50;;;18.19;57.48
6038;BME280;3047;42.600;23.470;2023-03-24T10:58:18;93021.56;;;18.32;60.33
6038;BME280;3047;42.600;23.470;2023-03-24T11:00:46;93021.13;;;18.40;56.10
6038;BME280;3047;42.600;23.470;2023-03-24T11:03:15;93016.81;;;18.40;57.63
6038;BME280;3047;42.600;23.470;2023-03-24T11:05:43;93013.59;;;18.65;60.25
6038;BME280;3047;42.600;23.470;2023-03-24T11:08:22;93009.41;;;18.78;57.18
6038;BME280;3047;42.600;23.470;2023-03-24T11:10:54;93001.38;;;18.85;55.72
6038;BME280;3047;42.600;23.470;2023-03-24T11:13:27;93005.91;;;18.94;51.47
6038;BME280;3047;42.600;23.470;2023-03-24T11:16:03;93001.38;;;18.85;52.26
6038;BME280;3047;42.600;23.470;2023-03-24T11:18:30;92988.56;;;18.85;50.24
6038;BME280;3047;42.600;23.470;2023-03-24T11:20:58;92991.94;;;18.85;54.15
6038;BME280;3047;42.600;23.470;2023-03-24T11:23:30;92991.28;;;18.96;48.57
6038;BME280;3047;42.600;23.470;2023-03-24T11:26:08;92988.34;;;19.02;50.90
6038;BME280;3047;42.600;23.470;2023-03-24T11:28:40;92975.50;;;19.16;50.27
6038;BME280;3047;42.600;23.470;2023-03-24T11:31:09;92980.13;;;19.24;50.76
6038;BME280;3047;42.600;23.470;2023-03-24T11:33:47;92978.09;;;19.29;49.85
6038;BME280;3047;42.600;23.470;2023-03-24T11:36:40;92977.47;;;19.25;52.33
6038;BME280;3047;42.600;23.470;2023-03-24T11:39:14;92958.19;;;19.20;54.73
6038;BME280;3047;42.600;23.470;2023-03-24T11:41:50;92971.38;;;19.41;52.85
6038;BME280;3047;42.600;23.470;2023-03-24T11:44:19;92965.84;;;19.47;53.81
6038;BME280;3047;42.600;23.470;2023-03-24T11:46:50;92965.34;;;19.55;55.57
6038;BME280;3047;42.600;23.470;2023-03-24T11:49:20;92936.22;;;19.43;51.34
6038;BME280;3047;42.600;23.470;2023-03-24T11:51:50;92960.22;;;19.42;50.26
6038;BME280;3047;42.600;23.470;2023-03-24T11:54:20;92961.53;;;19.47;49.59
6038;BME280;3047;42.600;23.470;2023-03-24T11:56:51;92959.28;;;19.43;50.21
6038;BME280;3047;42.600;23.470;2023-03-24T11:59:27;92954.09;;;19.57;47.93
6038;BME280;3047;42.600;23.470;2023-03-24T12:02:01;92954.19;;;19.56;47.42
6038;BME280;3047;42.600;23.470;2023-03-24T12:04:40;92949.66;;;19.46;48.03
6038;BME280;3047;42.600;23.470;2023-03-24T12:10:27;92943.84;;;19.57;51.35
6038;BME280;3047;42.600;23.470;2023-03-24T12:13:02;92938.50;;;19.60;51.30
6038;BME280;3047;42.600;23.470;2023-03-24T12:15:38;92927.16;;;19.64;45.52
6038;BME280;3047;42.600;23.470;2023-03-24T12:18:35;92926.72;;;19.58;47.96
6038;BME280;3047;42.600;23.470;2023-03-24T12:21:13;92914.41;;;19.50;47.20
6038;BME280;3047;42.600;23.470;2023-03-24T12:23:50;92929.94;;;19.61;47.07
6038;BME280;3047;42.600;23.470;2023-03-24T12:26:22;92922.25;;;19.61;52.06
6038;BME280;3047;42.600;23.470;2023-03-24T12:28:56;92920.88;;;19.56;49.12
6038;BME280;3047;42.600;23.470;2023-03-24T12:31:47;92913.91;;;19.45;49.83
6038;BME280;3047;42.600;23.470;2023-03-24T12:34:36;92912.41;;;19.28;51.95
6038;BME280;3047;42.600;23.470;2023-03-24T12:37:12;92904.09;;;19.12;49.48
6038;BME280;3047;42.600;23.470;2023-03-24T12:39:47;92908.69;;;19.07;46.85
6038;BME280;3047;42.600;23.470;2023-03-24T12:42:18;92906.59;;;18.99;46.98
6038;BME280;3047;42.600;23.470;2023-03-24T12:45:08;92850.25;;;18.59;45.27
6038;BME280;3047;42.600;23.470;2023-03-24T12:50:51;92893.41;;;18.92;49.40
6038;BME280;3047;42.600;23.470;2023-03-24T12:53:30;92889.09;;;18.93;48.86
6038;BME280;3047;42.600;23.470;2023-03-24T12:56:04;92889.88;;;18.81;45.28
6038;BME280;3047;42.600;23.470;2023-03-24T12:58:40;92871.34;;;18.77;46.28
6038;BME280;3047;42.600;23.470;2023-03-24T13:01:12;92877.47;;;18.74;50.03
6038;BME280;3047;42.600;23.470;2023-03-24T13:03:44;92872.34;;;18.74;50.40
6038;BME280;3047;42.600;23.470;2023-03-24T13:06:19;92876.44;;;18.77;50.57
6038;BME280;3047;42.600;23.470;2023-03-24T13:08:59;92876.34;;;18.78;48.18
6038;BME280;3047;42.600;23.470;2023-03-24T13:11:35;92839.78;;;18.49;47.59
6038;BME280;3047;42.600;23.470;2023-03-24T13:14:08;92875.94;;;18.58;45.79
6038;BME280;3047;42.600;23.470;2023-03-24T13:16:39;92875.97;;;18.43;46.77
6038;BME280;3047;42.600;23.470;2023-03-24T13:19:10;92874.91;;;18.33;45.72
6038;BME280;3047;42.600;23.470;2023-03-24T13:21:42;92873.44;;;18.29;51.08
6038;BME280;3047;42.600;23.470;2023-03-24T13:24:11;92863.22;;;18.29;49.08
6038;BME280;3047;42.600;23.470;2023-03-24T13:26:39;92859.75;;;18.30;50.92
6038;BME280;3047;42.600;23.470;2023-03-24T13:29:15;92856.88;;;18.35;49.66
6038;BME280;3047;42.600;23.470;2023-03-24T13:31:53;92857.25;;;18.43;48.49
6038;BME280;3047;42.600;23.470;2023-03-24T13:34:25;92836.09;;;18.26;51.40
6038;BME280;3047;42.600;23.470;2023-03-24T13:36:56;92845.56;;;18.39;48.74
6038;BME280;3047;42.600;23.470;2023-03-24T13:39:25;92846.63;;;18.49;47.32
6038;BME280;3047;42.600;23.470;2023-03-24T13:41:56;92842.34;;;18.49;46.27
6038;BME280;3047;42.600;23.470;2023-03-24T13:44:24;92844.59;;;18.54;46.15
6038;BME280;3047;42.600;23.470;2023-03-24T13:47:13;92842.69;;;18.58;46.11
6038;BME280;3047;42.600;23.470;2023-03-24T13:49:42;92838.38;;;18.58;45.99
6038;BME280;3047;42.600;23.470;2023-03-24T13:52:25;92837.78;;;18.67;46.64
6038;BME280;3047;42.600;23.470;2023-03-24T13:54:55;92834.63;;;18.64;46.78
6038;BME280;3047;42.600;23.470;2023-03-24T13:57:23;92809.28;;;18.46;49.60
6038;BME280;3047;42.600;23.470;2023-03-24T14:00:00;92823.22;;;18.55;46.97
6038;BME280;3047;42.600;23.470;2023-03-24T14:02:48;92826.84;;;18.65;46.52
6038;BME280;3047;42.600;23.470;2023-03-24T14:05:42;92824.19;;;18.67;45.11
6038;BME280;3047;42.600;23.470;2023-03-24T14:08:33;92818.97;;;18.68;45.11
6038;BME280;3047;42.600;23.470;2023-03-24T14:13:52;92805.19;;;18.71;41.89
6038;BME280;3047;42.600;23.470;2023-03-24T14:16:34;92810.00;;;18.75;42.96
6038;BME280;3047;42.600;23.470;2023-03-24T14:19:21;92808.56;;;18.71;45.67
6038;BME280;3047;42.600;23.470;2023-03-24T14:22:11;92801.00;;;18.70;44.11
6038;BME280;3047;42.600;23.470;2023-03-24T14:24:39;92808.81;;;18.67;42.22
6038;BME280;3047;42.600;23.470;2023-03-24T14:27:37;92765.47;;;18.38;43.85
6038;BME280;3047;42.600;23.470;2023-03-24T14:30:15;92808.19;;;18.63;44.35
6038;BME280;3047;42.600;23.470;2023-03-24T14:32:46;92778.22;;;18.52;43.68
6038;BME280;3047;42.600;23.470;2023-03-24T14:35:25;92807.69;;;18.58;43.71
6038;BME280;3047;42.600;23.470;2023-03-24T14:37:57;92805.66;;;18.63;42.65
6038;BME280;3047;42.600;23.470;2023-03-24T14:40:28;92786.69;;;18.53;42.96
6038;BME280;3047;42.600;23.470;2023-03-24T14:43:22;92793.25;;;18.57;42.67
6038;BME280;3047;42.600;23.470;2023-03-24T14:46:00;92800.00;;;18.58;45.34
6038;BME280;3047;42.600;23.470;2023-03-24T14:48:40;92766.03;;;18.43;45.16
6038;BME280;3047;42.600;23.470;2023-03-24T14:51:20;92776.66;;;18.50;43.65
6038;BME280;3047;42.600;23.470;2023-03-24T14:53:55;92738.53;;;18.20;43.81
6038;BME280;3047;42.600;23.470;2023-03-24T14:56:26;92786.50;;;18.56;42.56
6038;BME280;3047;42.600;23.470;2023-03-24T14:59:00;92792.63;;;18.53;43.68
6038;BME280;3047;42.600;23.470;2023-03-24T15:01:30;92794.06;;;18.58;42.86
6038;BME280;3047;42.600;23.470;2023-03-24T15:04:00;92794.88;;;18.58;42.25
6038;BME280;3047;42.600;23.470;2023-03-24T15:06:32;92771.94;;;18.44;47.14
6038;BME280;3047;42.600;23.470;2023-03-24T15:09:08;92789.56;;;18.48;48.88
6038;BME280;3047;42.600;23.470;2023-03-24T15:11:37;92750.50;;;18.19;52.82
6038;BME280;3047;42.600;23.470;2023-03-24T15:14:05;92777.72;;;18.33;52.90
6038;BME280;3047;42.600;23.470;2023-03-24T15:16:34;92781.41;;;18.29;53.00
6038;BME280;3047;42.600;23.470;2023-03-24T15:19:05;92786.63;;;18.27;51.68
6038;BME280;3047;42.600;23.470;2023-03-24T15:21:36;92778.63;;;18.19;54.40
6038;BME280;3047;42.600;23.470;2023-03-24T15:24:24;92783.28;;;18.13;51.96
6038;BME280;3047;42.600;23.470;2023-03-24T15:26:53;92785.19;;;18.09;52.87
6038;BME280;3047;42.600;23.470;2023-03-24T15:29:20;92744.56;;;17.77;55.60
6038;BME280;3047;42.600;23.470;2023-03-24T15:31:49;92772.13;;;17.87;55.35
6038;BME280;3047;42.600;23.470;2023-03-24T15:34:24;92760.25;;;17.71;54.49
6038;BME280;3047;42.600;23.470;2023-03-24T15:36:54;92775.75;;;17.68;57.92
6038;BME280;3047;42.600;23.470;2023-03-24T15:39:25;92781.03;;;17.65;59.52
6038;BME280;3047;42.600;23.470;2023-03-24T15:41:53;92779.16;;;17.54;60.21
6038;BME280;3047;42.600;23.470;2023-03-24T15:44:23;92774.69;;;17.44;60.23
6038;BME280;3047;42.600;23.470;2023-03-24T15:46:53;92772.31;;;17.41;58.79
6038;BME280;3047;42.600;23.470;2023-03-24T15:49:25;92777.03;;;17.33;58.29
6038;BME280;3047;42.600;23.470;2023-03-24T15:51:55;92782.53;;;17.26;57.92
6038;BME280;3047;42.600;23.470;2023-03-24T15:54:24;92769.56;;;17.15;58.70
6038;BME280;3047;42.600;23.470;2023-03-24T15:57:10;92745.50;;;16.91;57.03
6038;BME280;3047;42.600;23.470;2023-03-24T15:59:42;92761.22;;;16.83;59.63
6038;BME280;3047;42.600;23.470;2023-03-24T16:02:23;92722.25;;;16.51;59.48
6038;BME280;3047;42.600;23.470;2023-03-24T16:04:52;92731.53;;;16.52;56.29
6038;BME280;3047;42.600;23.470;2023-03-24T16:07:25;92789.38;;;16.82;56.06
6038;BME280;3047;42.600;23.470;2023-03-24T16:09:55;92778.81;;;16.73;58.26
6038;BME280;3047;42.600;23.470;2023-03-24T16:12:23;92790.81;;;16.55;59.50
6038;BME280;3047;42.600;23.470;2023-03-24T16:14:50;92787.22;;;16.44;61.06
6038;BME280;3047;42.600;23.470;2023-03-24T16:17:17;92780.25;;;16.31;59.27
6038;BME280;3047;42.600;23.470;2023-03-24T16:19:44;92790.28;;;16.35;58.77
6038;BME280;3047;42.600;23.470;2023-03-24T16:22:10;92781.69;;;16.21;56.52
6038;BME280;3047;42.600;23.470;2023-03-24T16:24:39;92796.72;;;16.26;53.08
6038;BME280;3047;42.600;23.470;2023-03-24T16:27:05;92797.69;;;16.23;52.25
6038;BME280;3047;42.600;23.470;2023-03-24T16:29:32;92766.31;;;16.07;52.20
6038;BME280;3047;42.600;23.470;2023-03-24T16:31:59;92768.97;;;16.05;51.47
6038;BME280;3047;42.600;23.470;2023-03-24T16:34:25;92794.19;;;16.10;55.82
6038;BME280;3047;42.600;23.470;2023-03-24T16:36:53;92784.09;;;16.09;54.19